Flight Track Log - Related Links

Times and Time Zones

All times are in EDT time to prevent confusion due to time zone crossing. See the SWA920 flight status page for this flight to view local times or setup timezone preferences in your user account.

Time Position Orientation Groundspeed Altitude Reporting Facility
EDT Latitude Longitude Course Direction KTS MPH feet Rate Location/Type
Wed 06:02:32 PM 36.1000 -86.6833 122° Southeast 156 180 1,400  Level Nashville TRACON
Wed 06:03:44 PM 36.0667 -86.6167 122° Southeast 232 267 3,900 2,273 Climbing Nashville TRACON
Wed 06:04:44 PM 36.0667 -86.5500 90° East 255 293 6,400 2,855 Climbing Nashville TRACON
Wed 06:06:09 PM 36.0708 -86.4178 88° East 278 320 10,800 2,648 Climbing Memphis Center
Wed 06:07:09 PM 36.0700 -86.3203 91° East 297 342 12,800 2,750 Climbing Memphis Center
Wed 06:08:09 PM 36.0703 -86.2022 90° East 323 372 16,300 3,200 Climbing Memphis Center
Wed 06:09:09 PM 36.0703 -86.0789 90° East 346 398 19,200 2,850 Climbing Memphis Center
Wed 06:10:09 PM 36.0594 -85.9486 96° East 371 427 22,000 2,356 Climbing Memphis Center
Wed 06:11:52 PM 36.0450 -85.7053 94° East 430 495 25,600 1,914 Climbing Atlanta Center
Wed 06:12:52 PM 36.0342 -85.5614 95° East 422 486 27,200 1,600 Climbing Atlanta Center
Wed 06:13:52 PM 36.0214 -85.4044 96° East 435 501 28,800 900 Climbing Atlanta Center
Wed 06:14:52 PM 35.9667 -85.2728 117° Southeast 435 501 29,000 250 Climbing Atlanta Center
Wed 06:15:52 PM 35.8864 -85.1536 130° Southeast 430 495 29,300 950 Climbing Atlanta Center
Wed 06:16:52 PM 35.8100 -85.0528 133° Southeast 438 504 30,900 1,800 Climbing Atlanta Center
Wed 06:17:52 PM 35.7233 -84.9339 132° Southeast 453 521 32,900 1,550 Climbing Atlanta Center
Wed 06:18:52 PM 35.6450 -84.8156 129° Southeast 453 521 34,000 1,350 Climbing Atlanta Center
Wed 06:19:52 PM 35.5664 -84.7025 131° Southeast 453 521 35,600 1,400 Climbing Atlanta Center
Wed 06:20:52 PM 35.4875 -84.5897 131° Southeast 442 509 36,800 1,100 Climbing Atlanta Center
Wed 06:21:52 PM 35.4067 -84.4744 131° Southeast 442 509 37,800 1,100 Climbing Atlanta Center
Wed 06:22:52 PM 35.3256 -84.3619 131° Southeast 437 503 39,000 600 Climbing Atlanta Center
Wed 06:23:52 PM 35.2467 -84.2497 131° Southeast 437 503 39,000  Level Atlanta Center
Wed 06:24:52 PM 35.1653 -84.1403 132° Southeast 437 503 39,000  Level Atlanta Center
Wed 06:25:52 PM 35.0881 -84.0286 130° Southeast 437 503 39,000  Level Atlanta Center
Wed 06:26:52 PM 35.0067 -83.9169 132° Southeast 437 503 39,000  Level Atlanta Center
Wed 06:27:52 PM 34.9211 -83.7931 130° Southeast 437 503 39,000 -50 Level Atlanta Center
Wed 06:28:52 PM 34.8519 -83.6997 132° Southeast 432 497 38,900 -550 Descending Atlanta Center
Wed 06:29:52 PM 34.7722 -83.5886 131° Southeast 438 504 37,900 -1,000 Descending Atlanta Center
Wed 06:30:52 PM 34.6778 -83.4681 134° Southeast 438 504 36,900 -950 Descending Atlanta Center
Wed 06:31:52 PM 34.6042 -83.3600 130° Southeast 455 524 36,000 -900 Descending Atlanta Center
Wed 06:32:52 PM 34.5200 -83.2472 132° Southeast 455 524 35,100 -950 Descending Atlanta Center
Wed 06:33:52 PM 34.4294 -83.1222 131° Southeast 456 525 34,100 -1,050 Descending Atlanta Center
Wed 06:34:52 PM 34.3450 -83.0122 133° Southeast 456 525 33,000 -550 Descending Atlanta Center
Wed 06:35:52 PM 34.2647 -82.9003 131° Southeast 439 505 33,000 -100 Level Atlanta Center
Wed 06:36:52 PM 34.1844 -82.7933 132° Southeast 439 505 32,800 -650 Descending Atlanta Center
Wed 06:37:52 PM 34.1042 -82.6867 132° Southeast 433 498 31,700 -1,050 Descending Atlanta Center
Wed 06:38:52 PM 34.0214 -82.5800 133° Southeast 433 498 30,700 -1,000 Descending Atlanta Center
Wed 06:39:52 PM 33.9450 -82.4761 132° Southeast 424 488 29,700 -1,000 Descending Atlanta Center
Wed 06:40:52 PM 33.8686 -82.3775 133° Southeast 417 480 28,700 -1,000 Descending Atlanta Center
Wed 06:41:52 PM 33.7942 -82.2742 131° Southeast 412 474 27,700 -386 Descending Atlanta Center
Wed 06:45:16 PM 33.6172 -81.8750 118° Southeast 407 468 27,000 -159 Descending Jacksonville Center
Wed 06:46:16 PM 33.5786 -81.7508 110° East 407 468 27,000 -500 Level Jacksonville Center
Wed 06:47:16 PM 33.5378 -81.6242 111° Southeast 407 468 26,000 -1,000 Descending Jacksonville Center
Wed 06:48:16 PM 33.4989 -81.5003 111° Southeast 407 468 25,000 -500 Descending Jacksonville Center
Wed 06:49:16 PM 33.4622 -81.3814 110° East 402 463 25,000  Level Jacksonville Center
Wed 06:50:16 PM 33.4211 -81.2625 112° Southeast 389 448 25,000 -1,050 Level Jacksonville Center
Wed 06:51:16 PM 33.3861 -81.1439 109° East 384 442 22,900 -2,500 Descending Jacksonville Center
Wed 06:52:16 PM 33.3467 -81.0228 111° Southeast 379 436 20,000 -2,800 Descending Jacksonville Center
Wed 06:53:16 PM 33.3072 -80.9017 111° Southeast 385 443 17,300 -2,600 Descending Jacksonville Center
Wed 06:54:16 PM 33.2681 -80.7883 112° Southeast 385 443 14,800 -2,050 Descending Jacksonville Center
Wed 06:55:16 PM 33.2283 -80.6750 113° Southeast 377 434 13,200 -1,950 Descending Jacksonville Center
Wed 06:56:16 PM 33.1600 -80.5900 134° Southeast 362 417 10,900 -1,600 Descending Jacksonville Center
Wed 06:57:16 PM 33.0961 -80.5122 134° Southeast 350 403 10,000 -1,250 Descending Jacksonville Center
Wed 06:58:16 PM 33.0425 -80.4419 132° Southeast 318 366 8,400 -1,700 Descending Jacksonville Center
Wed 06:59:16 PM 32.9892 -80.3789 135° Southeast 266 306 6,600 -1,800 Descending Jacksonville Center
Wed 07:00:16 PM 32.9442 -80.3208 133° Southeast 266 306 4,800 -1,700 Descending Jacksonville Center
Wed 07:01:16 PM 32.8950 -80.2628 135° Southeast 261 300 3,200 -1,350 Descending Jacksonville Center
Wed 07:02:16 PM 32.8581 -80.2019 126° Southeast 249 287 2,100 -1,100 Descending Jacksonville Center
Wed 07:04:00 PM 32.8833 -80.0333 79° East  Level FlightAware Approximate
Wed 07:11:00 PM 32.8986 -80.0405 79° East  Level Estimated
Wed 07:12:00 PM 32.8986 -80.0405 79° East  Level Estimated
Wed 07:13:00 PM 32.8986 -80.0405 79° East  Level Estimated
Wed 07:14:00 PM 32.8986 -80.0405 79° East  Level Estimated

Login

Don't have an account? Register now (free) for customized features, flight alerts, and more!